Historyczne dane pomiarowe

Dodano dane terminowe – wersja testowa.

Dane z okresu 1951-2019

Wersja bazy: 1.34 [2019-03-16, lista zmian], aktualizacja planowana na 2019-04-15

Dane meteo z obszaru Polski uzyskane na podstawie danych udostępnionych przez Instytut Meteorologii i Gospodarki Wodnej – Państwowy Instytut Badawczy.

 

Wybierz Datę:    

       

TemperaturaWilgotnośćWiatrCiśnienieOpadyŚniegCzas trwania zjawisk
 Stacja t tx tn tng RH VA  wxwx mslp ppp RRR   cm mm wxwxwxwxwxwxwx
1987-08-14 13.7 17.8 10.5- 83.0- 6.3 1.3---- 13.6------------
1987-08-13 13.0 18.2 9.3- 77.8- 4.7 1.0---- 0.0------------
1987-08-12 12.8 16.8 8.0- 69.8- 6.0 1.7---- 0.0------------
1987-08-11 12.4 14.9 10.5- 84.5- 4.3 1.0---- 1.6------------
1987-08-10 13.6 17.7 11.1- 85.3- 7.7 1.3---- 1.7------------
1987-08-09 17.5 23.3 13.0- 63.5- 4.0 3.3---- 3.8------------
1987-08-08 14.9 20.3 6.4- 69.3- 3.7 1.7---- 0.0------------
1987-08-07 10.3 14.2 6.8- 79.3- 6.3 1.3---- 2.5------------
1987-08-06 11.6 14.6 9.2- 65.5- 2.0 1.0---- 0.3------------
1987-08-05 11.4 16.4 7.6- 76.8- 5.0 1.7---- 3.1------------
1987-08-04 14.7 17.0 13.0- 81.0- 7.0 2.0---- 0.3------------
1987-08-03 15.3 19.8 10.8- 74.0- 5.7 1.0---- 1.6------------
1987-08-02 14.2 18.3 12.5- 75.3- 6.7 2.0---- 2.7------------
1987-08-01 15.8 18.4 11.5- 82.3- 7.3 1.0---- 3.1------------
1987-07-31 14.7 21.6 12.4- 88.8- 8.0 1.7---- 1.6------------
1987-07-30 17.9 23.9 10.4- 67.3- 5.0 1.0---- 16.0------------
1987-07-29 14.9 18.4 11.0- 69.8- 6.7 0.7---- 0.0------------
1987-07-28 12.8 14.2 11.8- 80.3- 7.3 1.3---- 2.6------------
1987-07-27 12.8 16.4 10.4- 63.5- 6.3 6.0---- 2.3------------
1987-07-26 12.5 15.9 10.3- 88.0- 6.0 0.7---- 0.3------------
1987-07-25 17.8 23.5 14.4- 76.3- 7.0 0.7---- 0.0------------
1987-07-24 19.9 23.9 15.5- 77.8- 4.7 0.3---- 2.9------------
1987-07-23 19.8 24.9 13.9- 75.5- 4.3 0.7---- 0.0------------
1987-07-22 18.6 23.1 11.9- 73.8- 2.3 1.3---- 0.0------------
1987-07-21 17.9 22.4 13.9- 77.0- 4.7 1.0---- 0.1------------
1987-07-20 17.7 21.5 14.5- 89.0- 4.0 1.0---- 0.0------------
1987-07-19 18.3 23.2 16.6- 86.0- 8.0 1.0---- 14.3------------
1987-07-18 22.0 24.7 17.1- 77.3- 6.3 0.3---- 16.3------------
1987-07-17 22.9 28.5 17.7- 70.3- 4.0 3.0---- 0.0------------
1987-07-16 21.5 26.4 14.3- 81.5- 4.3 2.3---- 0.5------------
1987-07-15 18.2 23.1 10.9- 68.5- 4.0 1.7---- 0.0------------
1987-07-14 16.3 19.8 10.5- 64.5- 0.0 0.7---- 0.0------------
1987-07-13 17.5 20.8 13.3- 75.0- 3.3 1.3---- 0.0------------
1987-07-12 22.1 28.0 17.5- 62.8- 6.3 3.3---- 8.1------------
1987-07-11 18.5 24.7 8.7- 60.0- 1.7 1.0---- 0.0------------
1987-07-10 14.8 19.2 10.1- 69.3- 2.0 3.0---- 0.0------------
1987-07-09 15.4 23.2 13.1- 92.3- 7.3 1.3---- 4.7------------
1987-07-08 22.6 27.4 17.3- 57.5- 4.7 2.7---- 10.7------------
1987-07-07 20.1 25.7 11.9- 55.5- 0.0 3.3---- 0.0------------
1987-07-06 17.2 21.9 10.1- 71.5- 0.7 3.0---- 0.0------------
1987-07-05 15.9 18.4 12.4- 69.3- 5.0 3.0---- 0.0------------
1987-07-04 17.2 20.4 12.3- 73.8- 5.0 2.0---- 0.0------------
1987-07-03 17.1 20.8 12.0- 82.5- 6.0 0.7---- 0.0------------
1987-07-02 16.6 22.8 13.9- 90.5- 8.0 1.7---- 4.2------------
1987-07-01 23.3 30.6 19.6- 76.3- 4.0 1.0---- 27.1------------
1987-06-30 23.6 29.5 18.0- 72.3- 0.7 0.7---- 0.0------------
1987-06-29 21.2 25.0 17.0- 73.5- 2.0 1.3---- 0.0------------
1987-06-28 18.9 24.1 12.2- 70.5- 5.7 1.7---- 0.1------------
1987-06-27 15.5 18.8 13.6- 92.3- 5.3 0.7---- 3.8------------
1987-06-26 16.5 23.4 9.3- 74.5- 5.7 1.7---- 9.4------------
1987-06-25 13.2 16.7 11.9- 81.3- 6.7 1.3---- 0.8------------
1987-06-24 15.5 19.4 10.9- 74.5- 6.0 0.7---- 1.9------------
1987-06-23 15.3 20.1 10.3- 72.0- 6.3 0.7---- 0.1------------
1987-06-22 12.5 17.9 11.0- 89.8- 8.0 1.3---- 0.1------------
1987-06-21 16.9 20.8 10.8- 67.0- 5.0 1.3---- 3.8------------
1987-06-20 14.9 21.8 11.0- 71.8- 6.7 2.0---- 0.0------------
1987-06-19 12.0 17.0 6.6- 72.5- 5.7 1.3---- 0.4------------
1987-06-18 10.2 14.5 7.1- 75.5- 7.3 2.7---- 3.7------------
1987-06-17 11.4 15.3 9.2- 65.0- 5.7 1.3---- 0.0------------
1987-06-16 12.0 23.0 9.0- 81.0- 7.7 4.0---- 2.6------------
756.5 ms

 

Źródłem pochodzenia danych jest Instytut Meteorologii i Gospodarki Wodnej – Państwowy Instytut Badawczy. Dane Instytutu Meteorologii i Gospodarki Wodnej – Państwowego Instytutu Badawczego zostały przetworzone.

Dane źródłowe można odnaleźć na stronie https://dane.imgw.pl